createdAt,value
2022-09-05T06:14:47.974Z,8.70
2022-09-05T06:15:05.111Z,8.48
2022-09-05T06:17:16.283Z,6.97
2022-09-05T06:22:08.619Z,6.72
2022-09-05T06:24:04.724Z,7.50
2022-09-05T06:27:33.384Z,9.07
2022-09-05T06:30:23.739Z,8.70
2022-09-05T06:33:28.364Z,8.30
2022-09-05T06:36:31.107Z,8.45
2022-09-05T06:39:48.660Z,9.73
2022-09-05T06:42:48.292Z,9.75
2022-09-05T06:45:58.619Z,8.40
2022-09-05T06:49:32.065Z,7.90
2022-09-05T06:52:06.821Z,7.55
2022-09-05T06:55:12.460Z,7.40
2022-09-05T06:58:19.760Z,9.32
2022-09-05T07:01:08.882Z,7.97
2022-09-05T07:04:51.465Z,7.60
2022-09-05T07:07:46.222Z,8.85
2022-09-05T07:10:39.196Z,8.43
2022-09-05T07:13:44.558Z,7.00
2022-09-05T07:16:42.318Z,6.55
2022-09-05T07:19:52.934Z,8.47
2022-09-05T07:22:50.464Z,7.75
2022-09-05T07:25:37.411Z,7.28
2022-09-05T07:28:29.403Z,9.73
2022-09-05T07:31:37.097Z,8.07
2022-09-05T07:34:32.748Z,8.67
2022-09-05T07:37:25.286Z,8.55
2022-09-05T07:40:25.328Z,7.72
2022-09-05T07:43:18.995Z,9.95
2022-09-05T07:46:14.878Z,10.23
2022-09-05T07:49:09.807Z,7.47
2022-09-05T07:56:49.543Z,6.93
2022-09-05T07:57:08.833Z,5.95
2022-09-05T07:58:49.728Z,6.90
2022-09-05T08:01:40.304Z,9.57
2022-09-05T08:04:35.079Z,7.57
2022-09-05T08:07:48.903Z,9.00
2022-09-05T08:11:22.123Z,7.25
2022-09-05T08:14:38.455Z,7.18
2022-09-05T08:17:30.390Z,7.05
2022-09-05T08:20:15.793Z,10.47
2022-09-05T08:23:29.504Z,9.30
2022-09-05T08:26:33.227Z,7.68
2022-09-05T08:29:31.922Z,9.05
2022-09-05T08:32:41.755Z,8.75
2022-09-05T08:35:38.939Z,6.57
2022-09-05T08:38:26.099Z,6.47
2022-09-05T08:41:50.190Z,8.73
2022-09-05T08:46:47.586Z,7.70
2022-09-05T08:48:22.219Z,8.18
2022-09-05T08:51:25.959Z,6.67
2022-09-05T08:54:18.426Z,7.20
2022-09-05T08:57:22.168Z,8.30
2022-09-05T09:00:20.409Z,6.10
2022-09-05T09:03:32.145Z,6.07
2022-09-05T09:06:21.758Z,7.07
2022-09-05T09:09:13.614Z,6.40
2022-09-05T09:12:08.871Z,8.13
2022-09-05T09:14:57.637Z,7.82
2022-09-05T09:17:45.513Z,6.95
2022-09-05T09:20:48.659Z,8.27
2022-09-05T09:23:49.718Z,7.47
2022-09-05T09:26:49.300Z,7.88
2022-09-05T09:29:39.696Z,10.07
2022-09-05T09:32:24.868Z,7.25
2022-09-05T09:35:13.056Z,6.30
2022-09-05T09:38:04.020Z,6.10
2022-09-05T09:41:12.448Z,7.82
2022-09-05T09:44:22.480Z,7.13
2022-09-05T09:47:14.199Z,5.95
2022-09-05T09:50:02.339Z,5.60
2022-09-05T09:53:12.992Z,8.57
2022-09-05T09:56:19.881Z,6.60
2022-09-05T09:59:13.707Z,6.45
2022-09-05T10:04:20.374Z,6.50
2022-09-05T10:10:36.454Z,6.03
2022-09-05T10:11:00.443Z,7.43
2022-09-05T10:12:52.067Z,5.65
2022-09-05T10:16:22.185Z,6.10
2022-09-05T10:20:09.846Z,5.15
2022-09-05T10:23:11.598Z,7.23
2022-09-05T10:26:16.734Z,5.78
2022-09-05T10:29:35.237Z,5.90
2022-09-05T10:35:11.674Z,5.70
2022-09-05T10:35:51.863Z,6.45
2022-09-05T10:38:46.472Z,6.43
2022-09-05T10:42:10.752Z,6.72
2022-09-05T10:44:57.345Z,5.75
2022-09-05T10:47:53.312Z,7.18
2022-09-05T10:50:44.622Z,5.93
2022-09-05T10:54:04.045Z,6.27
2022-09-05T10:57:05.975Z,5.15
2022-09-05T11:02:20.361Z,7.35
2022-09-05T11:03:01.516Z,6.72
2022-09-05T11:05:57.189Z,7.07
2022-09-05T11:08:59.778Z,6.60
2022-09-05T11:12:00.089Z,6.93
2022-09-05T11:14:56.300Z,5.65
2022-09-05T11:17:56.095Z,5.88
2022-09-05T11:21:01.186Z,5.22
2022-09-05T11:24:10.819Z,6.33
2022-09-05T11:27:23.681Z,5.18
2022-09-05T11:30:28.141Z,7.43
2022-09-05T11:39:47.883Z,5.45
2022-09-05T11:39:59.338Z,6.72
2022-09-05T11:41:11.542Z,5.30
2022-09-05T11:44:25.501Z,7.00
2022-09-05T11:47:44.587Z,6.90
2022-09-05T11:50:29.780Z,5.60
2022-09-05T11:53:58.122Z,5.85
2022-09-05T11:56:51.943Z,6.53
2022-09-05T12:00:18.580Z,5.63
2022-09-05T12:04:03.697Z,6.13
2022-09-05T12:10:47.151Z,5.35
2022-09-05T12:13:49.192Z,6.93
2022-09-05T12:16:55.293Z,5.07
2022-09-05T12:19:48.698Z,4.75
2022-09-05T12:22:37.329Z,6.07
2022-09-05T12:27:40.468Z,4.93
2022-09-05T12:29:32.768Z,6.80
2022-09-05T12:33:47.891Z,6.50
2022-09-05T12:36:10.695Z,5.05
2022-09-05T12:41:23.723Z,5.20
2022-09-05T12:42:10.884Z,5.30
2022-09-05T12:42:13.870Z,5.13
2022-09-05T12:45:13.002Z,5.53
2022-09-05T12:48:01.373Z,5.00
2022-09-05T12:51:00.021Z,4.80
2022-09-05T12:53:50.700Z,6.50
2022-09-05T13:02:34.822Z,4.80
2022-09-05T13:03:05.819Z,4.73
2022-09-05T13:03:26.817Z,4.88
2022-09-05T13:06:25.195Z,4.72
2022-09-05T13:09:16.496Z,5.95
2022-09-05T13:14:55.595Z,5.10
2022-09-05T13:15:36.209Z,5.17
2022-09-05T13:18:23.882Z,5.03
2022-09-05T13:21:23.158Z,6.32
2022-09-05T13:24:23.058Z,4.82
2022-09-05T13:27:34.501Z,5.90
2022-09-05T13:32:18.289Z,4.33
2022-09-05T13:38:14.030Z,4.82
2022-09-05T13:38:16.289Z,5.15
2022-09-05T13:40:23.013Z,6.63
2022-09-05T13:43:21.892Z,4.60
2022-09-05T13:46:57.453Z,5.00
2022-09-05T13:49:53.634Z,5.18
2022-09-05T13:52:47.139Z,6.05
2022-09-05T13:55:54.044Z,4.80
2022-09-05T13:58:56.439Z,4.97
2022-09-05T14:02:26.396Z,5.90
2022-09-05T14:05:32.500Z,5.32
2022-09-05T14:08:46.068Z,4.90
2022-09-05T14:11:45.401Z,4.93
2022-09-05T14:17:56.662Z,5.07
2022-09-05T14:21:08.806Z,4.68
2022-09-05T14:24:27.825Z,4.10
2022-09-05T14:27:26.405Z,5.03
2022-09-05T14:33:01.032Z,4.93
2022-09-05T14:37:51.085Z,5.30
2022-09-05T14:38:15.365Z,4.38
2022-09-05T14:41:28.690Z,4.32
2022-09-05T14:44:44.042Z,5.05
2022-09-05T14:47:53.023Z,4.68
2022-09-05T14:50:59.638Z,4.50
2022-09-05T14:54:01.920Z,6.10
2022-09-05T15:02:41.843Z,5.22
2022-09-05T15:02:49.657Z,4.60
2022-09-05T15:07:01.577Z,5.27
2022-09-05T15:12:14.426Z,4.45
2022-09-05T15:13:11.380Z,4.35
2022-09-05T15:16:06.641Z,6.85
2022-09-05T15:18:53.260Z,4.30
2022-09-05T15:21:41.166Z,4.70
2022-09-05T15:24:31.046Z,5.25
2022-09-05T15:27:16.676Z,4.53
2022-09-05T15:30:02.419Z,4.20
2022-09-05T15:32:50.638Z,5.43
2022-09-05T15:35:42.399Z,4.90
2022-09-05T15:38:55.665Z,3.88
2022-09-05T15:41:43.436Z,4.10
2022-09-05T15:44:43.362Z,4.50
2022-09-05T15:47:44.206Z,5.13
2022-09-05T15:50:41.611Z,4.63
2022-09-05T15:53:38.416Z,4.93
2022-09-05T15:56:25.079Z,4.88
2022-09-05T15:59:11.503Z,3.63
2022-09-05T16:01:59.158Z,4.35
2022-09-05T16:10:27.088Z,4.13
2022-09-05T16:10:48.889Z,4.60
2022-09-05T16:14:48.623Z,4.85
2022-09-05T16:23:20.087Z,4.40
2022-09-05T16:23:32.897Z,4.50
2022-09-05T16:24:24.797Z,5.22
2022-09-05T16:27:43.504Z,4.88
2022-09-05T16:30:35.348Z,4.97
2022-09-05T16:33:25.190Z,5.15
2022-09-05T16:36:35.117Z,4.70
2022-09-05T16:39:25.021Z,4.97
2022-09-05T16:42:46.200Z,5.07
2022-09-05T16:45:32.647Z,5.47
2022-09-05T16:48:43.605Z,4.90
2022-09-05T16:51:36.269Z,5.10
2022-09-05T16:54:32.058Z,4.07
2022-09-05T16:57:22.124Z,5.47
2022-09-05T17:00:08.818Z,5.25
2022-09-05T17:03:04.778Z,5.80
2022-09-05T17:05:55.884Z,6.03
2022-09-05T17:08:41.386Z,4.70
2022-09-05T17:11:29.440Z,4.32
2022-09-05T17:14:21.101Z,4.72
2022-09-05T17:18:04.606Z,4.30
2022-09-05T17:20:22.248Z,5.93
2022-09-05T17:29:19.470Z,4.72
2022-09-05T17:29:33.145Z,5.45
2022-09-05T17:32:59.543Z,5.85
2022-09-05T17:36:04.066Z,6.17
2022-09-05T17:39:16.536Z,5.00
2022-09-05T17:42:32.214Z,4.55
2022-09-05T17:45:25.577Z,6.40
2022-09-05T17:48:46.156Z,4.70
2022-09-05T17:51:52.042Z,4.87
2022-09-05T17:54:37.685Z,4.97
2022-09-05T17:57:36.758Z,5.35
2022-09-05T18:00:58.188Z,6.18
2022-09-05T18:03:45.826Z,5.35
2022-09-05T18:06:39.990Z,4.70
2022-09-05T18:09:35.265Z,5.82
2022-09-05T18:13:13.487Z,4.57
2022-09-05T18:15:34.052Z,5.28
2022-09-05T18:19:05.061Z,4.75
2022-09-05T18:21:49.604Z,4.80
2022-09-05T18:24:41.051Z,6.15
2022-09-05T18:28:04.820Z,5.40
2022-09-05T18:30:51.853Z,5.80
2022-09-05T18:33:55.541Z,4.93
2022-09-05T18:36:44.038Z,4.70
2022-09-05T18:39:29.767Z,6.80
2022-09-05T18:42:25.903Z,5.53
2022-09-05T18:45:28.421Z,5.45
2022-09-05T18:48:29.767Z,6.57
2022-09-05T18:51:25.837Z,6.20
2022-09-05T18:54:20.659Z,6.05
2022-09-05T18:57:28.348Z,5.60
2022-09-05T19:00:43.882Z,6.55
2022-09-05T19:03:35.865Z,5.97
2022-09-05T19:06:36.168Z,6.07
2022-09-05T19:09:33.765Z,6.07
2022-09-05T19:12:35.043Z,5.57
2022-09-05T19:16:21.083Z,5.18
2022-09-05T19:19:24.473Z,5.10
2022-09-05T19:23:08.776Z,5.37
2022-09-05T19:25:23.843Z,5.90
2022-09-05T19:34:53.125Z,6.85
2022-09-05T19:36:52.295Z,5.82
2022-09-05T19:36:53.253Z,6.05
2022-09-05T19:37:51.214Z,5.27
2022-09-05T19:47:30.902Z,5.13
2022-09-05T19:47:38.919Z,4.90
2022-09-05T19:47:49.755Z,5.03
2022-09-05T19:50:13.399Z,5.75
2022-09-05T19:53:07.668Z,4.57
2022-09-05T19:55:53.821Z,4.50
2022-09-05T19:58:42.250Z,4.28
2022-09-05T20:01:28.771Z,6.57
2022-09-05T20:04:18.643Z,5.10
2022-09-05T20:07:16.784Z,5.90
2022-09-05T20:10:03.998Z,5.47
2022-09-05T20:12:49.445Z,6.53
2022-09-05T20:15:36.667Z,4.78
2022-09-05T20:18:28.098Z,5.20
2022-09-05T20:21:30.392Z,6.97
2022-09-05T20:24:17.044Z,5.45
2022-09-05T20:27:02.515Z,7.95
2022-09-05T20:29:59.018Z,5.38
2022-09-05T20:32:54.041Z,4.85
2022-09-05T20:43:08.337Z,6.27
2022-09-05T20:43:15.053Z,5.38
2022-09-05T20:43:20.648Z,5.95
2022-09-05T20:45:07.315Z,5.20
2022-09-05T20:54:12.529Z,4.65
2022-09-05T20:54:18.231Z,6.17
2022-09-05T20:54:31.620Z,4.80
2022-09-05T20:57:29.121Z,5.65
2022-09-05T21:00:19.718Z,7.72
2022-09-05T21:03:08.632Z,5.75
2022-09-05T21:05:55.720Z,5.00
2022-09-05T21:08:41.128Z,5.53
2022-09-05T21:11:32.611Z,6.22
2022-09-05T21:14:22.686Z,6.80
2022-09-05T21:17:15.006Z,6.32
2022-09-05T21:20:08.691Z,6.87
2022-09-05T21:22:53.953Z,5.15
2022-09-05T21:25:58.224Z,5.63
2022-09-05T21:29:03.407Z,7.72
2022-09-05T21:31:54.691Z,7.00
2022-09-05T21:34:47.217Z,6.50
2022-09-05T21:37:32.628Z,7.25
2022-09-05T21:40:17.939Z,6.65
2022-09-05T21:47:35.420Z,6.00
2022-09-05T21:47:43.655Z,6.75
2022-09-05T21:49:15.269Z,5.47
2022-09-05T21:52:00.726Z,6.28
2022-09-05T21:59:17.233Z,6.55
2022-09-05T21:59:20.587Z,5.78
2022-09-05T22:00:58.896Z,7.30
2022-09-05T22:03:44.570Z,5.00
2022-09-05T22:06:34.056Z,4.90
2022-09-05T22:09:21.583Z,6.47
2022-09-05T22:12:30.254Z,7.70
2022-09-05T22:15:27.695Z,6.03
2022-09-05T22:18:17.777Z,6.47
2022-09-05T22:21:33.885Z,6.35
2022-09-05T22:24:12.126Z,6.40
2022-09-05T22:27:12.646Z,6.40
2022-09-05T22:29:58.311Z,6.97
2022-09-05T22:32:43.903Z,6.33
2022-09-05T22:35:29.135Z,6.72
2022-09-05T22:38:20.315Z,6.50
2022-09-05T22:41:06.031Z,7.35
2022-09-05T22:43:51.427Z,6.10
2022-09-05T22:46:36.297Z,5.77
2022-09-05T22:49:21.731Z,5.53
2022-09-05T22:52:08.454Z,6.20
2022-09-05T22:54:53.248Z,6.43
2022-09-05T22:57:39.155Z,5.32
2022-09-05T23:46:22.209Z,6.25
2022-09-05T23:49:08.375Z,5.40
2022-09-05T23:51:54.999Z,5.97
2022-09-05T23:54:43.955Z,7.13
2022-09-05T23:57:28.987Z,7.18
